Time;durP1;ratioP1;P1;durP2;ratioP2;P2;SDS_P1;SDS_P2;PMS_P1;PMS_P2;Temp;Humidity;BMP_temperature;BMP_pressure;BME280_temperature;BME280_humidity;BME280_pressure;Samples;Min_cycle;Max_cycle;Signal;HPM_P1;HPM_P2
2021/08/12 00:02:11;;;;;;;;;;;;;;;22.14;54.00;101674.34;5109444;27;20014;-60
2021/08/12 00:04:40;;;;;;;;;;;;;;;22.14;54.30;101679.72;5106461;27;19932;-61
2021/08/12 00:07:08;;;;;;;;;;;;;;;22.14;53.59;101679.72;5109970;27;20712;-61
2021/08/12 00:09:36;;;;;;;;;;;;;;;22.14;54.25;101682.41;5108840;27;19924;-60
2021/08/12 00:12:04;;;;;;;;;;;;;;;22.15;54.17;101681.44;5112134;27;19924;-61
2021/08/12 00:14:32;;;;;;;;;;;;;;;22.15;54.45;101680.59;5105428;27;19931;-58
2021/08/12 00:17:00;;;;;;;;;;;;;;;22.16;54.23;101687.72;5110191;27;19930;-61
2021/08/12 00:19:28;;;;;;;;;;;;;;;22.15;53.71;101677.88;5108588;27;19924;-61
2021/08/12 00:21:58;;;;;;;;;;;;;;;22.15;53.77;101681.44;5105084;27;19927;-60
2021/08/12 00:24:25;;;;;;;;;;;;;;;22.15;53.81;101683.28;5103236;27;19928;-61
2021/08/12 00:26:55;;;;;;;;;;;;;;;22.15;52.83;101678.75;5106754;27;19928;-56
2021/08/12 00:29:22;;;;;;;;;;;;;;;22.15;52.05;101675.19;5108353;27;19953;-59
2021/08/12 00:31:51;;;;;;;;;;;;;;;22.17;52.49;101675.97;5109805;27;19924;-61
2021/08/12 00:34:19;;;;;;;;;;;;;;;22.16;52.04;101683.16;5106122;28;19935;-61
2021/08/12 00:36:47;;;;;;;;;;;;;;;22.17;52.00;101675.97;5100310;28;19960;-60
2021/08/12 00:39:16;;;;;;;;;;;;;;;22.17;53.50;101675.97;5102229;28;19924;-61
2021/08/12 00:41:45;;;;;;;;;;;;;;;22.17;54.08;101687.59;5101564;28;19939;-61
2021/08/12 00:44:15;;;;;;;;;;;;;;;22.16;54.52;101676.94;5115290;27;19928;-60
2021/08/12 00:46:43;;;;;;;;;;;;;;;22.16;54.28;101680.47;5109711;27;19927;-60
2021/08/12 00:49:15;;;;;;;;;;;;;;;22.17;54.09;101678.66;5118880;27;20345;-60
2021/08/12 00:51:47;;;;;;;;;;;;;;;22.16;54.76;101685.88;5097323;27;19932;-60
2021/08/12 00:54:19;;;;;;;;;;;;;;;22.16;54.55;101688.56;5114514;27;20015;-60
2021/08/12 00:56:47;;;;;;;;;;;;;;;22.17;53.92;101678.66;5107299;27;19992;-61
2021/08/12 00:59:16;;;;;;;;;;;;;;;22.17;54.10;101681.38;5107225;28;19924;-61
2021/08/12 01:01:45;;;;;;;;;;;;;;;22.17;54.52;101682.22;5107573;27;19939;-60
2021/08/12 01:04:13;;;;;;;;;;;;;;;22.17;53.93;101678.66;5108714;28;19927;-56
2021/08/12 01:06:48;;;;;;;;;;;;;;;22.17;54.24;101682.22;5103595;28;19971;-61
2021/08/12 01:09:23;;;;;;;;;;;;;;;22.17;53.08;101684.91;5110280;28;19931;-61
2021/08/12 01:11:58;;;;;;;;;;;;;;;22.17;53.04;101681.38;5107589;27;20427;-61
2021/08/12 01:14:29;;;;;;;;;;;;;;;22.17;53.95;101676.84;5133255;27;19931;-59
2021/08/12 01:17:00;;;;;;;;;;;;;;;22.18;53.52;101680.38;5099186;28;19981;-60
2021/08/12 01:19:43;;;;;;;;;;;;;;;22.18;54.20;101675.00;5106934;28;19970;-59
2021/08/12 01:22:14;;;;;;;;;;;;;;;22.17;53.63;101687.59;5113384;28;19969;-59
2021/08/12 01:24:46;;;;;;;;;;;;;;;22.17;53.86;101679.53;5113348;27;19951;-60
2021/08/12 01:27:18;;;;;;;;;;;;;;;22.16;53.98;101679.63;5110122;28;19924;-60
2021/08/12 01:29:50;;;;;;;;;;;;;;;22.15;53.19;101685.97;5126126;27;19973;-61
2021/08/12 01:32:20;;;;;;;;;;;;;;;22.16;53.82;101683.16;5103995;28;19928;-61
2021/08/12 01:34:52;;;;;;;;;;;;;;;22.16;53.93;101688.56;5106659;28;19981;-61
2021/08/12 01:37:22;;;;;;;;;;;;;;;22.15;53.96;101692.22;5111354;27;19931;-61
2021/08/12 01:39:50;;;;;;;;;;;;;;;22.17;54.01;101697.53;5110638;27;20015;-61
2021/08/12 01:42:19;;;;;;;;;;;;;;;22.17;54.16;101701.09;5126865;27;20011;-60
2021/08/12 01:44:49;;;;;;;;;;;;;;;22.16;54.12;101688.56;5112368;27;19985;-61
2021/08/12 01:47:18;;;;;;;;;;;;;;;22.17;54.18;101697.53;5104958;27;19928;-60
2021/08/12 01:49:46;;;;;;;;;;;;;;;22.17;54.17;101700.22;5108794;27;19927;-59
2021/08/12 01:52:16;;;;;;;;;;;;;;;22.17;54.03;101697.53;5133927;27;19955;-55
2021/08/12 01:54:46;;;;;;;;;;;;;;;22.18;52.18;101691.16;5141330;27;19974;-61
2021/08/12 01:57:15;;;;;;;;;;;;;;;22.18;53.38;101696.53;5125609;27;19928;-61
2021/08/12 01:59:43;;;;;;;;;;;;;;;22.18;52.81;101694.75;5103161;27;20406;-61
2021/08/12 02:02:12;;;;;;;;;;;;;;;22.18;53.60;101685.75;5106806;27;19932;-59
2021/08/12 02:04:42;;;;;;;;;;;;;;;22.17;53.78;101698.38;5141859;27;19923;-60
2021/08/12 02:07:11;;;;;;;;;;;;;;;22.18;53.87;101700.13;5110506;27;19966;-61
2021/08/12 02:09:41;;;;;;;;;;;;;;;22.17;53.75;101698.38;5110305;27;20038;-60
2021/08/12 02:12:10;;;;;;;;;;;;;;;22.17;53.72;101706.47;5110009;27;19947;-59
2021/08/12 02:14:40;;;;;;;;;;;;;;;22.16;53.40;101699.34;5107352;27;19981;-60
2021/08/12 02:17:08;;;;;;;;;;;;;;;22.17;52.26;101701.09;5138960;27;19931;-61
2021/08/12 02:19:37;;;;;;;;;;;;;;;22.17;52.62;101703.78;5119672;27;19932;-61
2021/08/12 02:22:09;;;;;;;;;;;;;;;22.17;53.33;101698.38;5116291;27;19924;-60
2021/08/12 02:24:41;;;;;;;;;;;;;;;22.18;53.47;101688.47;5108689;27;19931;-61
2021/08/12 02:27:12;;;;;;;;;;;;;;;22.16;52.53;101685.88;5102282;27;19955;-59
2021/08/12 02:29:41;;;;;;;;;;;;;;;22.16;52.91;101682.31;5122125;27;19939;-60
2021/08/12 02:32:12;;;;;;;;;;;;;;;22.17;53.27;101681.38;5117020;27;19931;-60
2021/08/12 02:34:41;;;;;;;;;;;;;;;22.17;52.49;101687.59;5123712;27;19931;-61
2021/08/12 02:37:11;;;;;;;;;;;;;;;22.17;53.26;101687.59;5105720;27;19931;-60
2021/08/12 02:39:41;;;;;;;;;;;;;;;22.16;52.45;101682.31;5131594;27;19927;-60
2021/08/12 02:42:12;;;;;;;;;;;;;;;22.17;52.97;101686.75;5101927;27;19924;-59
2021/08/12 02:44:41;;;;;;;;;;;;;;;22.17;53.35;101694.84;5108076;27;19983;-60
2021/08/12 02:47:10;;;;;;;;;;;;;;;22.17;53.06;101694.84;5110941;27;19938;-60
2021/08/12 02:49:40;;;;;;;;;;;;;;;22.17;53.34;101692.16;5125811;27;19927;-59
2021/08/12 02:52:10;;;;;;;;;;;;;;;22.16;53.18;101702.03;5105794;27;19928;-59
2021/08/12 02:54:38;;;;;;;;;;;;;;;22.17;53.08;101694.84;5109451;27;19942;-61
2021/08/12 02:57:08;;;;;;;;;;;;;;;22.16;53.15;101702.03;5134361;27;20006;-59
2021/08/12 02:59:37;;;;;;;;;;;;;;;22.16;53.30;101696.66;5109980;27;20053;-60
2021/08/12 03:02:06;;;;;;;;;;;;;;;22.17;52.96;101694.84;5114418;27;19931;-61
2021/08/12 03:04:35;;;;;;;;;;;;;;;22.17;53.35;101705.63;5122570;27;20023;-61
2021/08/12 03:07:04;;;;;;;;;;;;;;;22.16;53.10;101696.66;5133688;27;19928;-59
2021/08/12 03:09:33;;;;;;;;;;;;;;;22.16;53.10;101702.03;5104407;27;19939;-61
2021/08/12 03:12:01;;;;;;;;;;;;;;;22.16;53.05;101704.72;5105782;27;19928;-60
2021/08/12 03:14:30;;;;;;;;;;;;;;;22.16;52.96;101707.41;5124669;27;19952;-58
2021/08/12 03:17:01;;;;;;;;;;;;;;;22.16;52.08;101707.41;5109543;27;19956;-61
2021/08/12 03:19:29;;;;;;;;;;;;;;;22.17;52.87;101711.00;5106230;27;19928;-60
2021/08/12 03:22:04;;;;;;;;;;;;;;;22.17;52.59;101711.00;5104267;27;19946;-61
2021/08/12 03:24:36;;;;;;;;;;;;;;;22.16;52.30;101714.66;5120579;27;19935;-60
2021/08/12 03:27:07;;;;;;;;;;;;;;;22.16;52.64;101715.50;5109978;27;20014;-60
2021/08/12 03:29:36;;;;;;;;;;;;;;;22.15;51.88;101719.16;5104777;27;19973;-59
2021/08/12 03:32:06;;;;;;;;;;;;;;;22.16;52.56;101720.91;5107669;27;19928;-61
2021/08/12 03:34:35;;;;;;;;;;;;;;;22.16;52.09;101717.34;5112397;27;19958;-61
2021/08/12 03:37:03;;;;;;;;;;;;;;;22.16;52.57;101723.59;5106779;27;19931;-60
2021/08/12 03:39:35;;;;;;;;;;;;;;;22.16;52.57;101720.91;5114623;27;19932;-61
2021/08/12 03:42:04;;;;;;;;;;;;;;;22.16;51.96;101720.03;5116323;27;19962;-61
2021/08/12 03:44:32;;;;;;;;;;;;;;;22.16;52.39;101715.50;5109429;27;20190;-58
2021/08/12 03:47:07;;;;;;;;;;;;;;;22.15;52.13;101719.16;5111174;27;19971;-56
2021/08/12 03:49:36;;;;;;;;;;;;;;;22.16;52.10;101715.50;5098899;28;19932;-61
2021/08/12 03:52:04;;;;;;;;;;;;;;;22.15;51.72;101721.84;5103793;27;19935;-60
2021/08/12 03:54:35;;;;;;;;;;;;;;;22.16;51.63;101717.34;5114186;27;20285;-60
2021/08/12 03:57:05;;;;;;;;;;;;;;;22.16;51.58;101712.81;5110307;27;19931;-61
2021/08/12 03:59:33;;;;;;;;;;;;;;;22.16;51.48;101714.66;5110435;27;19987;-60
2021/08/12 04:02:02;;;;;;;;;;;;;;;22.16;51.24;101717.34;5108157;27;19924;-60
2021/08/12 04:04:32;;;;;;;;;;;;;;;22.17;51.25;101713.69;5105477;27;19927;-60
2021/08/12 04:07:01;;;;;;;;;;;;;;;22.16;51.02;101715.50;5106682;27;19928;-61
2021/08/12 04:09:29;;;;;;;;;;;;;;;22.17;51.27;101724.47;5107748;27;20516;-60
2021/08/12 04:11:57;;;;;;;;;;;;;;;22.17;51.15;101722.63;5110179;27;19948;-60
2021/08/12 04:14:25;;;;;;;;;;;;;;;22.17;51.13;101721.78;5106709;27;19950;-60
2021/08/12 04:16:54;;;;;;;;;;;;;;;22.17;51.46;101722.63;5103907;27;19928;-60
2021/08/12 04:19:25;;;;;;;;;;;;;;;22.16;51.25;101723.59;5119544;27;19931;-60
2021/08/12 04:21:54;;;;;;;;;;;;;;;22.17;51.11;101722.63;5109333;27;19932;-60
2021/08/12 04:24:22;;;;;;;;;;;;;;;22.17;51.11;101729.88;5114602;27;19928;-58
2021/08/12 04:26:50;;;;;;;;;;;;;;;22.16;51.21;101731.69;5106620;27;19928;-60
2021/08/12 04:29:18;;;;;;;;;;;;;;;22.18;51.12;101736.97;5111258;27;19931;-59
2021/08/12 04:31:47;;;;;;;;;;;;;;;22.18;51.06;101731.56;5103307;27;20796;-60
2021/08/12 04:34:16;;;;;;;;;;;;;;;22.17;51.16;101741.50;5103227;27;19932;-49
2021/08/12 04:36:44;;;;;;;;;;;;;;;22.17;51.11;101744.19;5108941;27;20263;-60
2021/08/12 04:39:13;;;;;;;;;;;;;;;22.18;51.17;101750.44;5103987;27;19991;-60
2021/08/12 04:41:42;;;;;;;;;;;;;;;22.18;51.16;101756.72;5109062;27;20247;-59
2021/08/12 04:44:10;;;;;;;;;;;;;;;22.18;51.10;101745.94;5104709;27;20035;-56
2021/08/12 04:46:38;;;;;;;;;;;;;;;22.19;51.13;101746.78;5100413;28;19932;-60
2021/08/12 04:49:08;;;;;;;;;;;;;;;22.19;51.21;101749.47;5106296;27;20034;-58
2021/08/12 04:51:38;;;;;;;;;;;;;;;22.19;51.05;101746.78;5109585;27;19950;-60
2021/08/12 04:54:06;;;;;;;;;;;;;;;22.18;51.08;101748.63;5107594;27;19969;-60
2021/08/12 04:56:36;;;;;;;;;;;;;;;22.19;51.00;101749.47;5106655;28;20324;-60
2021/08/12 04:59:04;;;;;;;;;;;;;;;22.19;51.59;101750.38;5107313;27;19924;-59
2021/08/12 05:01:33;;;;;;;;;;;;;;;22.19;51.14;101747.69;5098793;28;19932;-58
2021/08/12 05:04:01;;;;;;;;;;;;;;;22.17;51.04;101744.19;5107854;28;19931;-60
2021/08/12 05:06:30;;;;;;;;;;;;;;;22.18;51.21;101751.31;5105155;28;19928;-60
2021/08/12 05:08:59;;;;;;;;;;;;;;;22.19;51.03;101753.06;5109768;27;19923;-60
2021/08/12 05:11:26;;;;;;;;;;;;;;;22.19;51.04;101757.56;5102801;28;19985;-60
2021/08/12 05:13:56;;;;;;;;;;;;;;;22.17;51.26;101757.66;5100931;27;19940;-60
2021/08/12 05:16:24;;;;;;;;;;;;;;;22.18;51.37;101769.28;5105622;28;20003;-55
2021/08/12 05:18:52;;;;;;;;;;;;;;;22.19;51.24;101768.34;5106072;28;20035;-60
2021/08/12 05:21:21;;;;;;;;;;;;;;;22.19;51.32;101766.53;5110875;28;19967;-60
2021/08/12 05:23:49;;;;;;;;;;;;;;;22.20;51.42;101778.16;5104823;28;19924;-61
2021/08/12 05:26:17;;;;;;;;;;;;;;;22.20;51.61;101770.94;5100944;27;19963;-59
2021/08/12 05:28:46;;;;;;;;;;;;;;;22.20;51.68;101768.25;5102519;28;19971;-60
2021/08/12 05:31:16;;;;;;;;;;;;;;;22.20;51.46;101780.88;5103418;28;19938;-64
2021/08/12 05:33:44;;;;;;;;;;;;;;;22.21;51.51;101764.59;5106101;28;19928;-59
2021/08/12 05:36:12;;;;;;;;;;;;;;;22.23;52.19;101761.81;5108959;28;20003;-56
2021/08/12 05:38:41;;;;;;;;;;;;;;;22.25;51.80;101759.00;5106509;28;19935;-57
2021/08/12 05:41:09;;;;;;;;;;;;;;;22.25;52.21;101759.91;5096326;28;19977;-58
2021/08/12 05:43:37;;;;;;;;;;;;;;;22.26;52.83;101748.16;5093727;28;19959;-58
2021/08/12 05:46:06;;;;;;;;;;;;;;;22.27;52.65;101757.97;5097025;28;19928;-58
2021/08/12 05:48:37;;;;;;;;;;;;;;;22.26;53.30;101758.94;5129541;27;19935;-58
2021/08/12 05:51:05;;;;;;;;;;;;;;;22.26;53.27;101760.75;5137312;27;19932;-58
2021/08/12 05:53:33;;;;;;;;;;;;;;;22.27;53.07;101755.25;5132537;27;19938;-58
2021/08/12 05:56:03;;;;;;;;;;;;;;;22.28;52.50;101757.00;5097918;28;20094;-58
2021/08/12 05:58:33;;;;;;;;;;;;;;;22.30;52.59;101762.28;5098444;28;19985;-56
2021/08/12 06:01:02;;;;;;;;;;;;;;;22.33;52.76;101757.59;5102410;28;20061;-57
2021/08/12 06:03:31;;;;;;;;;;;;;;;22.37;52.66;101763.72;5104811;28;19931;-63
2021/08/12 06:06:02;;;;;;;;;;;;;;;22.40;53.04;101758.13;5107659;28;19943;-62
2021/08/12 06:08:32;;;;;;;;;;;;;;;22.42;53.47;101761.59;5128653;27;19928;-63
2021/08/12 06:11:02;;;;;;;;;;;;;;;22.44;53.17;101765.03;5106382;28;19923;-63
2021/08/12 06:13:30;;;;;;;;;;;;;;;22.45;53.54;101771.31;5113628;28;20486;-62
2021/08/12 06:16:01;;;;;;;;;;;;;;;22.43;54.26;101768.72;5109682;28;20005;-61
2021/08/12 06:18:31;;;;;;;;;;;;;;;22.42;53.95;101772.38;5101930;28;19928;-62
2021/08/12 06:21:00;;;;;;;;;;;;;;;22.42;54.30;101768.78;5115393;28;20486;-60
2021/08/12 06:23:29;;;;;;;;;;;;;;;22.42;54.10;101775.06;5102276;28;19927;-62
2021/08/12 06:25:58;;;;;;;;;;;;;;;22.43;54.00;101774.13;5104420;28;19928;-61
2021/08/12 06:28:27;;;;;;;;;;;;;;;22.44;54.41;101778.53;5110447;28;19971;-60
2021/08/12 06:30:57;;;;;;;;;;;;;;;22.44;54.15;101772.28;5100067;28;19927;-62
2021/08/12 06:33:25;;;;;;;;;;;;;;;22.46;53.26;101773.06;5136013;27;19931;-58
2021/08/12 06:35:54;;;;;;;;;;;;;;;22.46;52.41;101776.63;5111628;28;19939;-61
2021/08/12 06:38:22;;;;;;;;;;;;;;;22.49;52.81;101775.56;5099167;28;19932;-64
2021/08/12 06:40:51;;;;;;;;;;;;;;;22.52;53.90;101776.25;5105898;28;19994;-63
2021/08/12 06:43:19;;;;;;;;;;;;;;;22.58;54.00;101780.38;5108973;28;19928;-61
2021/08/12 06:45:52;;;;;;;;;;;;;;;22.58;53.11;101788.47;5110147;28;20009;-62
2021/08/12 06:48:21;;;;;;;;;;;;;;;22.54;54.41;101782.41;5105514;28;19927;-60
2021/08/12 06:50:49;;;;;;;;;;;;;;;22.54;53.14;101779.69;5111215;27;19925;-60
2021/08/12 06:53:18;;;;;;;;;;;;;;;22.53;52.36;101775.25;5104728;27;20018;-60
2021/08/12 06:55:46;;;;;;;;;;;;;;;22.58;52.37;101783.06;5116692;27;20301;-61
2021/08/12 06:58:16;;;;;;;;;;;;;;;22.59;53.59;101782.13;5106224;27;19963;-60
2021/08/12 07:00:44;;;;;;;;;;;;;;;22.65;53.25;101786.25;5139602;27;19967;-62
2021/08/12 07:03:12;;;;;;;;;;;;;;;22.65;53.76;101787.09;5102645;28;19928;-60
2021/08/12 07:05:41;;;;;;;;;;;;;;;22.66;53.35;101794.25;5107301;28;20127;-60
2021/08/12 07:08:09;;;;;;;;;;;;;;;22.66;53.44;101796.94;5106290;28;19928;-61
2021/08/12 07:10:39;;;;;;;;;;;;;;;22.66;53.73;101796.94;5097968;28;20467;-61
2021/08/12 07:13:07;;;;;;;;;;;;;;;22.65;54.15;101795.19;5137631;27;19936;-59
2021/08/12 07:15:37;;;;;;;;;;;;;;;22.67;53.32;101805.91;5109309;28;20422;-60
2021/08/12 07:18:06;;;;;;;;;;;;;;;22.66;53.40;101802.34;5110769;28;19927;-62
2021/08/12 07:20:38;;;;;;;;;;;;;;;22.67;52.77;101797.81;5105918;28;19928;-60
2021/08/12 07:23:06;;;;;;;;;;;;;;;22.70;53.77;101797.63;5105636;28;19932;-54
2021/08/12 07:25:34;;;;;;;;;;;;;;;22.72;53.62;101793.03;5111654;28;19950;-61
2021/08/12 07:28:03;;;;;;;;;;;;;;;22.75;54.21;101792.81;5104184;28;19932;-57
2021/08/12 07:30:32;;;;;;;;;;;;;;;22.77;55.19;101788.22;5107330;28;19932;-57
2021/08/12 07:33:01;;;;;;;;;;;;;;;22.77;52.71;101785.50;5116278;27;19938;-58
2021/08/12 07:35:29;;;;;;;;;;;;;;;22.79;52.36;101788.09;5103313;27;20015;-60
2021/08/12 07:37:57;;;;;;;;;;;;;;;22.84;53.26;101778.75;5108425;27;19927;-56
2021/08/12 07:40:26;;;;;;;;;;;;;;;22.86;53.25;101781.34;5107914;27;19928;-57
2021/08/12 07:42:54;;;;;;;;;;;;;;;22.84;52.34;101786.84;5101457;28;19924;-58
2021/08/12 07:45:22;;;;;;;;;;;;;;;22.85;52.28;101782.31;5100142;27;19928;-57
2021/08/12 07:47:50;;;;;;;;;;;;;;;22.88;51.92;101787.53;5103294;27;19935;-56
2021/08/12 07:50:20;;;;;;;;;;;;;;;22.87;52.12;101794.72;5107756;27;19958;-58
2021/08/12 07:52:47;;;;;;;;;;;;;;;22.84;52.07;101792.25;5107839;27;19949;-58
2021/08/12 07:55:16;;;;;;;;;;;;;;;22.83;51.95;101786.94;5105864;27;19971;-57
2021/08/12 07:57:47;;;;;;;;;;;;;;;22.83;51.69;101795.03;5107801;27;20253;-58
2021/08/12 08:00:16;;;;;;;;;;;;;;;22.80;51.33;101793.41;5106949;27;19973;-56
2021/08/12 08:02:44;;;;;;;;;;;;;;;22.80;51.41;101787.13;5105737;27;19927;-56
2021/08/12 08:05:16;;;;;;;;;;;;;;;22.81;50.77;101795.13;5107376;27;20363;-59
2021/08/12 08:07:47;;;;;;;;;;;;;;;22.80;51.26;101793.41;5109355;27;19927;-60
2021/08/12 08:10:16;;;;;;;;;;;;;;;22.81;50.97;101797.84;5097943;27;20648;-61
2021/08/12 08:12:44;;;;;;;;;;;;;;;22.82;50.37;101798.69;5101812;27;19928;-61
2021/08/12 08:15:14;;;;;;;;;;;;;;;22.81;50.29;101797.84;5100361;27;20601;-60
2021/08/12 08:18:00;;;;;;;;;;;;;;;22.82;50.72;101809.47;5103706;27;19923;-60
2021/08/12 08:20:28;;;;;;;;;;;;;;;22.84;50.91;101812.97;5104449;27;19934;-62
2021/08/12 08:23:02;;;;;;;;;;;;;;;22.85;50.91;101815.56;5104986;27;20008;-61
2021/08/12 08:25:31;;;;;;;;;;;;;;;22.84;50.63;101816.50;5106707;27;20348;-61
2021/08/12 08:27:59;;;;;;;;;;;;;;;22.86;51.26;101822.69;5106370;27;19932;-58
2021/08/12 08:30:28;;;;;;;;;;;;;;;22.90;52.62;101830.59;5093706;28;19935;-57
2021/08/12 08:32:56;;;;;;;;;;;;;;;22.91;53.14;101835.88;5103500;28;19997;-55
2021/08/12 08:35:25;;;;;;;;;;;;;;;22.91;52.57;101832.31;5100627;27;19924;-51
2021/08/12 08:37:53;;;;;;;;;;;;;;;22.91;53.37;101832.31;5101484;28;19935;-56
2021/08/12 08:40:23;;;;;;;;;;;;;;;22.90;53.30;101833.28;5102885;28;20007;-56
2021/08/12 08:42:51;;;;;;;;;;;;;;;22.90;53.33;101839.53;5096190;28;19950;-54
2021/08/12 08:45:20;;;;;;;;;;;;;;;22.91;53.57;101833.19;5093186;28;20347;-56
2021/08/12 08:47:50;;;;;;;;;;;;;;;22.92;53.51;101834.06;5099777;28;19928;-54
2021/08/12 08:50:19;;;;;;;;;;;;;;;22.93;53.57;101842.06;5103657;28;19982;-55
2021/08/12 08:52:47;;;;;;;;;;;;;;;22.94;53.79;101851.84;5101106;28;19957;-55
2021/08/12 08:55:20;;;;;;;;;;;;;;;22.94;53.23;101843.78;5104043;28;19938;-56
2021/08/12 08:57:50;;;;;;;;;;;;;;;22.96;53.50;101849.09;5098239;28;19927;-56
2021/08/12 09:00:18;;;;;;;;;;;;;;;22.96;53.54;101852.66;5092859;28;19928;-57
2021/08/12 09:02:47;;;;;;;;;;;;;;;22.97;53.28;101851.69;5101981;28;20472;-56
2021/08/12 09:05:16;;;;;;;;;;;;;;;22.97;53.20;101853.50;5103997;28;19928;-56
2021/08/12 09:07:44;;;;;;;;;;;;;;;22.97;53.07;101856.19;5104800;28;20006;-56
2021/08/12 09:10:16;;;;;;;;;;;;;;;22.97;52.74;101859.78;5103751;28;19924;-57
2021/08/12 09:12:45;;;;;;;;;;;;;;;22.98;52.94;101858.81;5100961;28;19930;-57
2021/08/12 09:15:18;;;;;;;;;;;;;;;22.99;53.06;101862.38;5108805;28;20481;-57
2021/08/12 09:17:48;;;;;;;;;;;;;;;22.99;52.67;101868.63;5107899;28;19977;-55
2021/08/12 09:20:18;;;;;;;;;;;;;;;23.00;52.12;101870.38;5099582;28;19931;-56
2021/08/12 09:22:50;;;;;;;;;;;;;;;23.02;51.77;101865.75;5105731;28;19950;-56
2021/08/12 09:25:28;;;;;;;;;;;;;;;23.06;52.06;101858.34;5097167;28;20864;-55
2021/08/12 09:28:16;;;;;;;;;;;;;;;23.08;52.06;101859.09;5097890;28;19928;-56
2021/08/12 09:30:47;;;;;;;;;;;;;;;23.10;52.10;101851.78;5109879;28;19959;-53
2021/08/12 09:33:16;;;;;;;;;;;;;;;23.12;51.88;101854.38;5102835;28;19928;-56
2021/08/12 09:35:44;;;;;;;;;;;;;;;23.14;53.08;101858.75;5107113;28;20007;-55
2021/08/12 09:38:14;;;;;;;;;;;;;;;23.15;52.28;101851.50;5100005;28;19973;-57
2021/08/12 09:40:42;;;;;;;;;;;;;;;23.20;51.14;101858.34;5096491;28;19928;-53
2021/08/12 09:43:11;;;;;;;;;;;;;;;23.30;50.40;101864.03;5106606;28;19927;-55
2021/08/12 09:45:40;;;;;;;;;;;;;;;23.23;49.72;101851.03;5101664;28;19924;-53
2021/08/12 09:48:17;;;;;;;;;;;;;;;23.20;49.33;101849.41;5102724;28;19978;-56
2021/08/12 09:50:46;;;;;;;;;;;;;;;23.27;48.57;101858.84;5101647;28;19928;-52
2021/08/12 09:53:19;;;;;;;;;;;;;;;23.30;48.99;101855.09;5104669;28;19928;-55
2021/08/12 09:55:48;;;;;;;;;;;;;;;23.31;48.52;101862.19;5094523;28;19938;-56
2021/08/12 09:58:15;;;;;;;;;;;;;;;23.27;48.32;101858.84;5107188;28;19997;-56
2021/08/12 10:00:45;;;;;;;;;;;;;;;23.26;48.29;101856.22;5108203;28;20018;-54
2021/08/12 10:03:22;;;;;;;;;;;;;;;23.24;48.43;101861.72;5103200;28;19992;-56
2021/08/12 10:05:50;;;;;;;;;;;;;;;23.28;47.80;101859.72;5106766;28;19963;-56
2021/08/12 10:08:25;;;;;;;;;;;;;;;23.37;47.47;101859.97;5097885;28;19985;-53
2021/08/12 10:10:54;;;;;;;;;;;;;;;23.46;47.21;101855.81;5104229;28;20027;-58
2021/08/12 10:13:21;;;;;;;;;;;;;;;23.51;47.77;101855.53;5104343;28;19928;-57
2021/08/12 10:15:50;;;;;;;;;;;;;;;23.56;47.38;101856.09;5111015;28;19996;-55
2021/08/12 10:18:19;;;;;;;;;;;;;;;23.56;47.25;101844.41;5101941;28;19928;-56
2021/08/12 10:20:49;;;;;;;;;;;;;;;23.59;47.68;101841.53;5109324;28;19939;-56
2021/08/12 10:23:18;;;;;;;;;;;;;;;23.61;46.91;101845.00;5101865;28;19958;-54
2021/08/12 10:25:49;;;;;;;;;;;;;;;23.63;46.77;101840.38;5109311;28;19994;-56
2021/08/12 10:28:19;;;;;;;;;;;;;;;23.63;46.14;101838.53;5109551;28;19928;-56
2021/08/12 10:30:47;;;;;;;;;;;;;;;23.67;46.50;101842.75;5105892;27;19928;-56
2021/08/12 10:33:16;;;;;;;;;;;;;;;23.62;46.38;101842.19;5115321;28;19923;-55
2021/08/12 10:35:44;;;;;;;;;;;;;;;23.58;46.32;101846.06;5100448;28;19928;-57
2021/08/12 10:38:14;;;;;;;;;;;;;;;23.61;46.30;101836.88;5106261;28;19928;-56
2021/08/12 10:40:42;;;;;;;;;;;;;;;23.60;46.04;101833.34;5117914;28;19923;-56
2021/08/12 10:43:12;;;;;;;;;;;;;;;23.57;46.20;101838.06;5111652;28;19938;-56
2021/08/12 10:45:40;;;;;;;;;;;;;;;23.60;46.39;101832.44;5106776;28;19928;-56
2021/08/12 10:48:18;;;;;;;;;;;;;;;23.64;46.83;101842.06;5096875;28;20025;-54
2021/08/12 10:50:59;;;;;;;;;;;;;;;23.70;46.78;101838.97;5098675;28;19928;-55
2021/08/12 10:53:29;;;;;;;;;;;;;;;23.79;45.99;101832.97;5112060;27;19949;-55
2021/08/12 10:56:07;;;;;;;;;;;;;;;23.83;45.82;101834.50;5114972;28;19938;-56
2021/08/12 10:58:49;;;;;;;;;;;;;;;23.86;46.02;101833.41;5104074;28;20034;-61
2021/08/12 11:01:34;;;;;;;;;;;;;;;23.91;46.82;101844.81;5105281;28;19934;-57
2021/08/12 11:04:03;;;;;;;;;;;;;;;23.94;45.48;101846.47;5101619;28;19928;-62
2021/08/12 11:06:40;;;;;;;;;;;;;;;23.96;45.16;101842.69;5111481;28;19935;-61
2021/08/12 11:09:10;;;;;;;;;;;;;;;23.86;45.34;101838.81;5102863;28;19939;-64
2021/08/12 11:11:51;;;;;;;;;;;;;;;23.79;46.64;101843.78;5108229;28;19935;-65
2021/08/12 11:14:44;;;;;;;;;;;;;;;23.79;46.22;101837.50;5100490;28;20283;-64
2021/08/12 11:17:12;;;;;;;;;;;;;;;23.81;45.26;101835.56;5103094;28;20027;-67
2021/08/12 11:19:40;;;;;;;;;;;;;;;23.87;44.84;101835.16;5100114;28;19993;-61
2021/08/12 11:22:30;;;;;;;;;;;;;;;23.85;44.94;101835.28;5112303;28;20400;-61
2021/08/12 11:25:00;;;;;;;;;;;;;;;23.84;45.18;101836.22;5109339;28;19934;-62
2021/08/12 11:27:38;;;;;;;;;;;;;;;23.84;44.79;101836.22;5105398;28;21279;-66
2021/08/12 11:30:26;;;;;;;;;;;;;;;23.91;45.12;101834.00;5109719;28;19934;-64
2021/08/12 11:33:09;;;;;;;;;;;;;;;24.01;44.86;101828.88;5110173;28;19977;-61
2021/08/12 11:35:52;;;;;;;;;;;;;;;24.06;44.76;101825.84;5097116;28;19952;-60
2021/08/12 11:38:20;;;;;;;;;;;;;;;24.10;44.66;101828.25;5100317;27;19935;-62
2021/08/12 11:40:49;;;;;;;;;;;;;;;24.16;44.46;101837.78;5105617;28;19981;-61
2021/08/12 11:43:17;;;;;;;;;;;;;;;24.20;44.40;101825.78;5101170;28;19935;-60
2021/08/12 11:45:45;;;;;;;;;;;;;;;24.23;44.63;101831.00;5107682;28;19979;-63
2021/08/12 11:48:13;;;;;;;;;;;;;;;24.25;44.68;101826.31;5100873;28;19943;-64
2021/08/12 11:50:41;;;;;;;;;;;;;;;24.28;44.33;101836.06;5108072;28;19928;-67
2021/08/12 11:53:10;;;;;;;;;;;;;;;24.29;44.42;101830.56;5101822;28;19972;-67
2021/08/12 11:55:37;;;;;;;;;;;;;;;24.31;44.30;101830.47;5110022;28;20284;-67
2021/08/12 11:58:07;;;;;;;;;;;;;;;24.31;44.09;101823.22;5100360;28;19940;-64
2021/08/12 12:00:35;;;;;;;;;;;;;;;24.33;44.35;101820.41;5100503;28;19932;-66
2021/08/12 12:03:04;;;;;;;;;;;;;;;24.34;44.40;101819.44;5108925;28;19924;-65
2021/08/12 12:05:33;;;;;;;;;;;;;;;24.35;44.34;101827.44;5103059;28;19928;-66
2021/08/12 12:08:05;;;;;;;;;;;;;;;24.36;44.44;101826.47;5104449;28;20026;-64
2021/08/12 12:10:34;;;;;;;;;;;;;;;24.39;43.97;101819.97;5106279;28;19951;-65
2021/08/12 12:13:10;;;;;;;;;;;;;;;24.41;44.07;101825.28;5100516;28;19927;-62
2021/08/12 12:15:39;;;;;;;;;;;;;;;24.41;43.85;101823.44;5093584;28;20050;-66
2021/08/12 12:18:07;;;;;;;;;;;;;;;24.41;43.98;101827.97;5104355;28;19973;-66
2021/08/12 12:20:38;;;;;;;;;;;;;;;24.32;44.27;101822.25;5107117;28;19996;-65
2021/08/12 12:23:07;;;;;;;;;;;;;;;24.43;44.07;101820.66;5101478;28;19927;-65
2021/08/12 12:25:36;;;;;;;;;;;;;;;24.33;44.18;101810.44;5103822;28;19982;-65
2021/08/12 12:28:07;;;;;;;;;;;;;;;24.40;44.26;101812.72;5099714;28;19940;-65
2021/08/12 12:30:36;;;;;;;;;;;;;;;24.44;44.10;101808.84;5099205;28;19932;-65
2021/08/12 12:33:06;;;;;;;;;;;;;;;24.45;43.98;101800.59;5108991;28;19934;-66
2021/08/12 12:35:36;;;;;;;;;;;;;;;24.46;43.88;101799.63;5105393;28;19928;-65
2021/08/12 12:38:05;;;;;;;;;;;;;;;24.49;43.70;101796.75;5108988;28;20042;-65
2021/08/12 12:40:34;;;;;;;;;;;;;;;24.50;43.76;101803.84;5102889;28;19927;-65
2021/08/12 12:43:03;;;;;;;;;;;;;;;24.52;44.12;101803.78;5108079;28;19953;-61
2021/08/12 12:45:44;;;;;;;;;;;;;;;24.51;44.01;101802.03;5135786;27;19927;-66
2021/08/12 12:48:12;;;;;;;;;;;;;;;24.51;43.90;101793.91;5104690;28;19928;-66
2021/08/12 12:50:42;;;;;;;;;;;;;;;24.52;44.39;101796.50;5099120;28;19965;-65